Time;durP1;ratioP1;P1;durP2;ratioP2;P2;SDS_P1;SDS_P2;PMS_P1;PMS_P2;Temp;Humidity;BMP_temperature;BMP_pressure;BME280_temperature;BME280_humidity;BME280_pressure;Samples;Min_cycle;Max_cycle;Signal;HPM_P1;HPM_P2
2021/08/14 00:00:32;;;;;;;14.63;8.85;;;20.60;99.90;;;;;;4979528;28;20397;-62
2021/08/14 00:02:58;;;;;;;14.00;8.00;;;20.60;99.90;;;;;;4982194;28;20891;-64
2021/08/14 00:05:24;;;;;;;13.52;7.75;;;20.60;99.90;;;;;;4978783;28;20399;-64
2021/08/14 00:07:49;;;;;;;13.95;7.97;;;20.50;99.90;;;;;;4980471;28;20913;-63
2021/08/14 00:10:15;;;;;;;13.60;8.30;;;20.40;99.90;;;;;;4980318;28;20392;-62
2021/08/14 00:12:41;;;;;;;15.68;8.77;;;20.40;99.90;;;;;;4980434;28;20400;-64
2021/08/14 00:15:08;;;;;;;13.55;8.00;;;20.50;99.90;;;;;;4989369;28;20858;-67
2021/08/14 00:17:35;;;;;;;13.43;7.95;;;20.50;99.90;;;;;;4965804;28;20418;-68
2021/08/14 00:20:00;;;;;;;12.70;7.22;;;20.70;99.90;;;;;;4990064;28;20418;-59
2021/08/14 00:22:26;;;;;;;12.68;8.20;;;20.80;99.90;;;;;;4973258;28;20384;-68
2021/08/14 00:24:52;;;;;;;12.77;7.90;;;20.70;99.90;;;;;;4971004;28;20400;-67
2021/08/14 00:27:17;;;;;;;12.63;7.87;;;20.70;99.90;;;;;;4988084;28;20831;-66
2021/08/14 00:29:43;;;;;;;13.33;8.57;;;20.70;99.90;;;;;;4972972;28;20755;-68
2021/08/14 00:32:10;;;;;;;12.10;8.03;;;20.70;99.90;;;;;;4977737;28;20376;-64
2021/08/14 00:34:36;;;;;;;14.25;8.70;;;20.70;99.90;;;;;;4971023;28;20479;-64
2021/08/14 00:37:01;;;;;;;12.53;8.53;;;20.50;99.90;;;;;;4970626;28;20492;-58
2021/08/14 00:39:27;;;;;;;14.93;8.98;;;20.30;99.90;;;;;;4970417;28;20404;-63
2021/08/14 00:41:52;;;;;;;14.55;8.15;;;20.30;99.90;;;;;;4970747;28;20432;-63
2021/08/14 00:44:18;;;;;;;14.98;8.60;;;20.30;99.90;;;;;;4936887;28;20388;-63
2021/08/14 00:46:45;;;;;;;12.33;7.97;;;20.30;99.90;;;;;;4970745;28;20404;-66
2021/08/14 00:49:11;;;;;;;16.77;8.53;;;20.10;99.90;;;;;;4970095;28;20864;-64
2021/08/14 00:51:37;;;;;;;14.57;9.30;;;20.00;99.90;;;;;;4970359;28;20463;-64
2021/08/14 00:54:03;;;;;;;14.90;9.35;;;20.00;99.90;;;;;;4953418;28;20435;-59
2021/08/14 00:56:29;;;;;;;14.43;8.90;;;20.00;99.90;;;;;;4970380;28;20380;-63
2021/08/14 00:58:56;;;;;;;14.35;8.63;;;20.00;99.90;;;;;;4953380;28;20412;-63
2021/08/14 01:01:25;;;;;;;14.10;8.70;;;20.00;99.90;;;;;;4970067;28;20388;-64
2021/08/14 01:03:54;;;;;;;12.95;8.50;;;20.00;99.90;;;;;;4970610;28;20391;-62
2021/08/14 01:06:20;;;;;;;13.60;9.23;;;19.90;99.90;;;;;;4969954;28;20431;-63
2021/08/14 01:08:46;;;;;;;14.88;8.50;;;19.80;99.90;;;;;;4974749;28;20392;-62
2021/08/14 01:11:13;;;;;;;12.98;8.10;;;19.70;99.90;;;;;;4974538;28;20483;-63
2021/08/14 01:13:40;;;;;;;13.90;8.10;;;19.70;99.90;;;;;;4992075;28;20387;-63
2021/08/14 01:16:06;;;;;;;13.63;8.43;;;19.60;99.90;;;;;;4993461;28;20398;-59
2021/08/14 01:18:32;;;;;;;12.38;7.70;;;19.60;99.90;;;;;;4994144;28;20410;-64
2021/08/14 01:20:58;;;;;;;14.07;8.68;;;19.60;99.90;;;;;;4975886;28;20897;-64
2021/08/14 01:23:24;;;;;;;12.83;8.90;;;19.60;99.90;;;;;;4973497;28;20411;-64
2021/08/14 01:26:07;;;;;;;12.82;7.85;;;19.50;99.90;;;;;;4974544;28;20911;-64
2021/08/14 01:28:34;;;;;;;13.57;8.73;;;19.50;99.90;;;;;;4974647;28;20407;-63
2021/08/14 01:31:02;;;;;;;14.23;8.90;;;19.30;99.90;;;;;;4974264;28;20396;-64
2021/08/14 01:33:32;;;;;;;12.68;8.75;;;19.20;99.90;;;;;;4975915;28;20491;-63
2021/08/14 01:35:57;;;;;;;12.52;8.02;;;19.20;99.90;;;;;;4993709;28;20383;-62
2021/08/14 01:38:23;;;;;;;13.57;8.77;;;19.20;99.90;;;;;;4992599;28;20940;-63
2021/08/14 01:40:49;;;;;;;13.60;8.80;;;19.30;99.90;;;;;;4993872;28;20419;-63
2021/08/14 01:43:14;;;;;;;14.60;8.85;;;19.30;99.90;;;;;;4992773;28;20822;-63
2021/08/14 01:45:40;;;;;;;12.93;8.95;;;19.40;99.90;;;;;;4993714;28;20928;-63
2021/08/14 01:48:06;;;;;;;14.77;8.87;;;19.50;99.90;;;;;;4993746;28;20402;-59
2021/08/14 01:50:32;;;;;;;14.02;9.40;;;19.60;99.90;;;;;;4992948;28;20881;-63
2021/08/14 01:52:57;;;;;;;14.02;8.45;;;19.60;99.90;;;;;;4976258;28;20473;-63
2021/08/14 01:55:24;;;;;;;13.13;8.97;;;19.60;99.90;;;;;;4992650;28;20422;-64
2021/08/14 01:57:49;;;;;;;14.45;9.90;;;19.50;99.90;;;;;;4993119;28;20441;-64
2021/08/14 02:00:16;;;;;;;14.50;10.43;;;19.40;99.90;;;;;;4992389;28;20417;-63
2021/08/14 02:02:41;;;;;;;15.90;10.45;;;19.30;99.90;;;;;;4993151;28;20394;-69
2021/08/14 02:05:07;;;;;;;15.87;10.50;;;19.30;99.90;;;;;;4993094;28;20386;-61
2021/08/14 02:07:33;;;;;;;14.30;10.25;;;19.20;99.90;;;;;;4992718;28;20382;-66
2021/08/14 02:09:59;;;;;;;16.10;10.20;;;19.20;99.90;;;;;;4993477;28;20743;-66
2021/08/14 02:12:24;;;;;;;14.73;10.83;;;19.10;99.90;;;;;;4992458;28;20885;-65
2021/08/14 02:14:50;;;;;;;17.60;10.70;;;19.00;99.90;;;;;;4993093;28;20390;-67
2021/08/14 02:17:15;;;;;;;18.13;11.63;;;19.00;99.90;;;;;;4992148;28;20399;-68
2021/08/14 02:19:41;;;;;;;16.70;9.80;;;19.00;99.90;;;;;;4993036;28;20436;-68
2021/08/14 02:22:07;;;;;;;17.17;10.60;;;19.00;99.90;;;;;;4992948;28;20391;-59
2021/08/14 02:24:34;;;;;;;14.93;10.53;;;19.00;99.90;;;;;;4992422;28;20399;-66
2021/08/14 02:27:00;;;;;;;14.18;10.13;;;19.00;99.90;;;;;;4975296;28;20488;-65
2021/08/14 02:29:26;;;;;;;15.90;10.05;;;19.00;99.90;;;;;;4992185;28;20399;-64
2021/08/14 02:31:52;;;;;;;14.87;9.80;;;19.10;99.90;;;;;;4992750;28;20395;-64
2021/08/14 02:34:17;;;;;;;17.43;10.87;;;19.10;99.90;;;;;;4991919;28;20428;-64
2021/08/14 02:36:43;;;;;;;16.27;11.05;;;19.00;99.90;;;;;;4992838;28;20418;-64
2021/08/14 02:39:09;;;;;;;15.10;10.38;;;17.50;99.90;;;;;;4992231;28;20418;-59
2021/08/14 02:41:34;;;;;;;15.93;11.17;;;19.20;99.90;;;;;;4991986;28;20414;-64
2021/08/14 02:44:00;;;;;;;15.07;10.33;;;19.20;99.90;;;;;;4992384;28;20382;-64
2021/08/14 02:46:26;;;;;;;16.35;10.55;;;19.20;99.90;;;;;;4991727;28;20397;-64
2021/08/14 02:48:51;;;;;;;15.93;10.98;;;19.20;99.90;;;;;;4992224;28;20391;-64
2021/08/14 02:51:17;;;;;;;16.80;10.10;;;19.20;99.90;;;;;;4991491;28;20944;-63
2021/08/14 02:53:43;;;;;;;17.70;10.60;;;19.30;99.90;;;;;;4992114;28;20394;-63
2021/08/14 02:56:08;;;;;;;16.17;10.32;;;19.20;99.90;;;;;;4992297;28;20401;-61
2021/08/14 02:58:34;;;;;;;16.45;10.77;;;19.20;99.90;;;;;;4991728;28;20877;-63
2021/08/14 03:01:00;;;;;;;14.50;10.30;;;19.10;99.90;;;;;;4992287;28;20401;-63
2021/08/14 03:03:26;;;;;;;17.03;10.60;;;19.10;99.90;;;;;;4991126;28;20774;-66
2021/08/14 03:05:51;;;;;;;20.02;10.95;;;19.10;99.90;;;;;;4992201;28;20738;-67
2021/08/14 03:08:17;;;;;;;20.07;10.07;;;19.10;99.90;;;;;;4991499;28;20394;-67
2021/08/14 03:10:43;;;;;;;17.60;9.90;;;19.10;99.90;;;;;;4991989;28;20742;-68
2021/08/14 03:13:11;;;;;;;15.05;10.10;;;19.10;99.90;;;;;;4992101;28;20386;-68
2021/08/14 03:15:36;;;;;;;16.38;10.25;;;19.10;99.90;;;;;;4991803;28;20866;-64
2021/08/14 03:18:02;;;;;;;14.57;9.53;;;19.10;99.90;;;;;;4991638;28;20412;-64
2021/08/14 03:20:28;;;;;;;15.55;10.02;;;19.10;99.90;;;;;;4990996;28;20766;-66
2021/08/14 03:22:54;;;;;;;15.47;9.90;;;19.00;99.90;;;;;;4991905;28;20394;-66
2021/08/14 03:25:20;;;;;;;16.27;10.45;;;19.00;99.90;;;;;;4991142;28;20390;-67
2021/08/14 03:27:45;;;;;;;16.50;10.47;;;19.00;99.90;;;;;;4991782;28;20921;-65
2021/08/14 03:30:14;;;;;;;12.93;9.10;;;19.00;99.90;;;;;;4991043;28;20393;-59
2021/08/14 03:32:40;;;;;;;14.75;9.90;;;18.90;99.90;;;;;;4991585;28;20471;-67
2021/08/14 03:35:07;;;;;;;14.80;9.32;;;18.80;99.90;;;;;;4991685;28;20403;-66
2021/08/14 03:37:32;;;;;;;15.60;10.70;;;18.80;99.90;;;;;;4990659;28;20374;-64
2021/08/14 03:39:58;;;;;;;15.98;10.88;;;18.80;99.90;;;;;;4990073;28;20409;-68
2021/08/14 03:42:23;;;;;;;15.88;10.30;;;18.80;99.90;;;;;;4990432;28;20390;-67
2021/08/14 03:44:49;;;;;;;16.88;10.48;;;18.70;99.90;;;;;;4991438;28;20414;-66
2021/08/14 03:47:15;;;;;;;15.83;10.73;;;18.70;99.90;;;;;;4990480;28;20395;-60
2021/08/14 03:49:40;;;;;;;17.20;10.87;;;18.80;99.90;;;;;;4990886;28;20886;-67
2021/08/14 03:52:06;;;;;;;17.70;11.03;;;18.80;99.90;;;;;;4991180;28;20411;-62
2021/08/14 03:54:32;;;;;;;15.00;10.25;;;18.80;99.90;;;;;;4990749;28;20379;-63
2021/08/14 03:56:57;;;;;;;18.90;10.80;;;18.70;99.90;;;;;;4990884;28;20390;-63
2021/08/14 03:59:23;;;;;;;14.93;10.70;;;18.60;99.90;;;;;;4990477;28;20405;-67
2021/08/14 04:01:49;;;;;;;14.07;9.97;;;18.50;99.90;;;;;;4990922;28;20414;-64
2021/08/14 04:04:14;;;;;;;17.80;11.63;;;18.50;99.90;;;;;;4990871;28;20391;-60
2021/08/14 04:06:40;;;;;;;18.80;10.90;;;18.50;99.90;;;;;;4990818;28;20391;-63
2021/08/14 04:09:05;;;;;;;15.50;10.93;;;18.60;99.90;;;;;;4990784;28;20382;-64
2021/08/14 04:11:31;;;;;;;16.00;10.30;;;18.50;99.90;;;;;;4989958;28;20395;-63
2021/08/14 04:13:57;;;;;;;18.13;11.47;;;18.50;99.90;;;;;;4991303;28;20386;-63
2021/08/14 04:16:22;;;;;;;16.60;10.63;;;18.60;99.90;;;;;;4990363;28;20887;-64
2021/08/14 04:18:48;;;;;;;15.30;10.60;;;18.60;99.90;;;;;;4990641;28;20513;-63
2021/08/14 04:21:14;;;;;;;16.00;10.90;;;18.50;99.90;;;;;;4990738;28;20429;-61
2021/08/14 04:23:39;;;;;;;18.30;10.30;;;18.50;99.90;;;;;;4990321;28;20453;-64
2021/08/14 04:26:05;;;;;;;16.87;10.90;;;18.60;99.90;;;;;;4990765;28;20749;-63
2021/08/14 04:28:30;;;;;;;15.35;10.45;;;18.60;99.90;;;;;;4990074;28;20474;-64
2021/08/14 04:30:56;;;;;;;15.65;10.07;;;18.60;99.90;;;;;;4990445;28;20394;-63
2021/08/14 04:33:22;;;;;;;14.67;10.10;;;18.60;99.90;;;;;;4989632;28;20395;-63
2021/08/14 04:35:49;;;;;;;15.60;10.00;;;18.60;99.90;;;;;;4990317;28;20418;-62
2021/08/14 04:38:15;;;;;;;16.95;10.50;;;18.60;99.90;;;;;;4990621;28;20397;-67
2021/08/14 04:40:40;;;;;;;17.08;11.20;;;18.70;99.90;;;;;;4989876;28;20426;-68
2021/08/14 04:43:06;;;;;;;14.70;10.00;;;18.70;99.90;;;;;;4990466;28;20386;-64
2021/08/14 04:45:31;;;;;;;15.97;11.30;;;18.70;99.90;;;;;;4989839;28;20379;-63
2021/08/14 04:47:57;;;;;;;18.80;10.90;;;18.70;99.90;;;;;;4973097;28;20409;-63
2021/08/14 04:50:23;;;;;;;17.60;12.25;;;18.80;99.90;;;;;;4989918;28;20398;-63
2021/08/14 04:52:48;;;;;;;13.73;9.90;;;19.00;99.90;;;;;;4990258;28;20405;-63
2021/08/14 04:55:14;;;;;;;18.60;10.40;;;19.00;99.90;;;;;;4990601;28;20441;-63
2021/08/14 04:57:40;;;;;;;16.13;10.10;;;19.10;99.90;;;;;;4990099;28;20476;-64
2021/08/14 05:00:06;;;;;;;17.13;10.30;;;19.50;99.90;;;;;;4990389;28;20501;-63
2021/08/14 05:02:32;;;;;;;14.33;9.43;;;20.50;99.90;;;;;;4984679;28;20805;-64
2021/08/14 05:04:57;;;;;;;14.88;8.80;;;21.70;99.90;;;;;;4980774;28;20472;-64
2021/08/14 05:07:23;;;;;;;14.55;8.82;;;22.90;99.90;;;;;;4963895;28;20394;-63
2021/08/14 05:09:50;;;;;;;13.77;8.48;;;24.00;99.90;;;;;;4982152;28;20392;-64
2021/08/14 05:12:16;;;;;;;14.13;8.63;;;24.70;99.90;;;;;;4979954;28;20391;-63
2021/08/14 05:14:42;;;;;;;14.05;8.80;;;24.60;99.90;;;;;;4975097;28;20405;-63
2021/08/14 05:17:07;;;;;;;14.15;8.73;;;24.20;99.90;;;;;;4970627;28;20733;-64
2021/08/14 05:19:33;;;;;;;16.65;9.82;;;23.90;99.90;;;;;;4970069;28;20416;-64
2021/08/14 05:21:58;;;;;;;14.10;9.38;;;23.60;99.90;;;;;;4970673;28;20763;-65
2021/08/14 05:24:24;;;;;;;17.45;9.70;;;23.30;99.90;;;;;;4980058;28;20394;-64
2021/08/14 05:26:50;;;;;;;16.33;9.60;;;23.20;99.90;;;;;;4979873;28;20859;-65
2021/08/14 05:29:16;;;;;;;17.00;9.90;;;23.50;99.90;;;;;;4984085;28;20398;-67
2021/08/14 05:31:41;;;;;;;15.50;10.13;;;24.20;99.90;;;;;;4978830;28;20462;-64
2021/08/14 05:34:07;;;;;;;14.33;9.50;;;25.10;99.90;;;;;;4972579;28;20770;-62
2021/08/14 05:36:33;;;;;;;14.67;9.23;;;26.50;99.90;;;;;;4983162;28;20404;-64
2021/08/14 05:38:59;;;;;;;15.15;8.88;;;27.80;99.90;;;;;;4978389;28;20416;-65
2021/08/14 05:41:25;;;;;;;15.27;9.02;;;28.80;99.90;;;;;;4978810;28;20445;-65
2021/08/14 05:43:51;;;;;;;14.93;9.60;;;29.30;99.90;;;;;;4981392;28;20728;-65
2021/08/14 05:46:17;;;;;;;14.02;9.73;;;30.00;99.90;;;;;;4987445;28;20897;-66
2021/08/14 05:48:42;;;;;;;13.73;9.20;;;29.90;99.90;;;;;;4989500;28;20399;-65
2021/08/14 05:51:12;;;;;;;13.37;9.10;;;29.80;99.90;;;;;;4977629;28;20460;-64
2021/08/14 05:53:40;;;;;;;14.00;9.13;;;29.90;99.90;;;;;;4981153;28;20449;-66
2021/08/14 05:56:05;;;;;;;12.52;9.60;;;30.60;99.90;;;;;;4978816;28;20488;-66
2021/08/14 05:58:32;;;;;;;15.30;9.60;;;31.40;99.20;;;;;;4985787;28;20443;-63
2021/08/14 06:00:57;;;;;;;15.35;9.15;;;32.10;97.70;;;;;;4984225;28;20387;-63
2021/08/14 06:03:23;;;;;;;13.20;9.23;;;32.20;95.90;;;;;;4992237;28;20916;-58
2021/08/14 06:05:49;;;;;;;17.00;10.47;;;32.60;94.80;;;;;;4992845;28;20393;-64
2021/08/14 06:08:15;;;;;;;13.30;9.70;;;32.70;94.50;;;;;;4974858;28;20392;-63
2021/08/14 06:10:40;;;;;;;15.83;9.43;;;32.80;93.60;;;;;;4984268;28;20459;-64
2021/08/14 06:13:07;;;;;;;15.98;10.57;;;33.10;92.70;;;;;;4988864;28;20407;-64
2021/08/14 06:15:33;;;;;;;14.30;10.30;;;33.80;91.60;;;;;;4971706;28;20402;-62
2021/08/14 06:17:58;;;;;;;13.15;9.80;;;34.20;90.40;;;;;;4972570;28;20392;-64
2021/08/14 06:20:24;;;;;;;14.27;10.00;;;34.50;88.00;;;;;;4972221;28;20427;-59
2021/08/14 06:22:50;;;;;;;15.30;11.57;;;34.70;86.00;;;;;;4972791;28;20392;-65
2021/08/14 06:25:16;;;;;;;16.07;12.10;;;34.80;84.90;;;;;;4973159;28;20479;-66
2021/08/14 06:27:42;;;;;;;12.63;9.73;;;34.40;85.10;;;;;;4973168;28;20464;-66
2021/08/14 06:30:09;;;;;;;15.23;11.90;;;34.90;83.10;;;;;;4980316;28;20433;-66
2021/08/14 06:32:35;;;;;;;14.15;9.90;;;34.70;82.50;;;;;;4980273;28;20411;-67
2021/08/14 06:35:01;;;;;;;15.23;9.70;;;35.00;80.90;;;;;;4980184;28;20388;-67
2021/08/14 06:37:27;;;;;;;13.90;11.90;;;35.20;81.10;;;;;;4978222;28;20392;-66
2021/08/14 06:39:53;;;;;;;14.68;10.02;;;35.70;78.90;;;;;;4979704;28;20425;-65
2021/08/14 06:42:19;;;;;;;14.48;10.35;;;35.70;76.90;;;;;;4981414;28;20456;-67
2021/08/14 06:44:45;;;;;;;14.03;10.00;;;35.50;78.40;;;;;;4981651;28;20361;-67
2021/08/14 06:47:11;;;;;;;15.30;10.33;;;35.00;79.00;;;;;;4964917;28;20819;-67
2021/08/14 06:49:36;;;;;;;15.35;9.98;;;35.30;76.60;;;;;;4979509;28;20971;-65
2021/08/14 06:52:02;;;;;;;14.85;10.20;;;35.10;77.70;;;;;;4981103;28;20894;-67
2021/08/14 06:54:28;;;;;;;17.30;12.50;;;35.60;76.40;;;;;;4988055;28;20481;-67
2021/08/14 06:56:53;;;;;;;14.27;10.40;;;35.90;75.50;;;;;;4986619;28;20479;-66
2021/08/14 06:59:19;;;;;;;18.45;16.75;;;36.30;73.70;;;;;;4972013;28;20892;-67
2021/08/14 07:01:44;;;;;;;15.57;14.00;;;36.60;71.70;;;;;;4984726;28;20396;-67
2021/08/14 07:04:10;;;;;;;13.00;10.00;;;36.70;71.10;;;;;;4971036;28;20385;-67
2021/08/14 07:06:36;;;;;;;13.27;9.65;;;35.80;73.30;;;;;;4971844;28;20384;-67
2021/08/14 07:09:01;;;;;;;13.57;10.20;;;36.20;73.10;;;;;;4971951;28;20389;-67
2021/08/14 07:11:27;;;;;;;14.75;13.20;;;36.50;71.20;;;;;;4984380;28;20390;-61
2021/08/14 07:13:53;;;;;;;13.98;10.60;;;36.50;71.20;;;;;;4991267;28;20870;-66
2021/08/14 07:16:19;;;;;;;13.93;10.03;;;37.10;68.40;;;;;;4990364;28;20400;-67
2021/08/14 07:18:45;;;;;;;12.63;9.25;;;37.80;66.80;;;;;;4983304;28;20431;-67
2021/08/14 07:21:11;;;;;;;15.63;10.23;;;37.00;66.50;;;;;;4989399;28;20481;-68
2021/08/14 07:23:36;;;;;;;13.70;9.10;;;37.30;67.40;;;;;;4990924;28;20543;-67
2021/08/14 07:26:02;;;;;;;11.63;8.80;;;37.20;65.80;;;;;;4990549;28;20386;-68
2021/08/14 07:28:28;;;;;;;13.20;9.20;;;37.60;64.80;;;;;;4983714;28;20420;-61
2021/08/14 07:30:54;;;;;;;13.17;8.70;;;37.80;64.50;;;;;;4971824;28;20380;-68
2021/08/14 07:33:20;;;;;;;11.73;9.40;;;38.80;62.00;;;;;;4971487;28;20674;-66
2021/08/14 07:35:45;;;;;;;13.27;8.52;;;38.50;60.00;;;;;;4971560;28;20427;-66
2021/08/14 07:38:12;;;;;;;11.10;8.47;;;38.80;60.10;;;;;;4980643;28;20405;-66
2021/08/14 07:40:38;;;;;;;12.52;8.77;;;39.00;58.10;;;;;;4990982;28;20399;-66
2021/08/14 07:43:03;;;;;;;10.97;8.60;;;38.40;58.90;;;;;;4991448;28;20389;-68
2021/08/14 07:45:29;;;;;;;12.90;7.70;;;37.90;59.70;;;;;;4985573;28;20428;-66
2021/08/14 07:47:56;;;;;;;14.90;8.57;;;38.30;59.40;;;;;;4971541;28;20399;-67
2021/08/14 07:50:23;;;;;;;13.93;8.80;;;38.10;59.50;;;;;;4978988;28;20403;-67
2021/08/14 07:52:50;;;;;;;12.25;8.48;;;38.10;59.60;;;;;;4981366;28;20506;-65
2021/08/14 07:55:16;;;;;;;13.35;8.85;;;37.10;60.60;;;;;;4980060;28;20430;-66
2021/08/14 07:57:42;;;;;;;12.80;9.20;;;37.10;59.80;;;;;;4980256;28;20392;-67
2021/08/14 08:00:10;;;;;;;15.00;8.73;;;37.70;58.80;;;;;;4980335;28;20408;-66
2021/08/14 08:02:37;;;;;;;12.18;8.00;;;38.10;58.10;;;;;;4979342;28;20398;-65
2021/08/14 08:05:03;;;;;;;13.10;8.20;;;37.70;58.90;;;;;;4981119;28;20396;-68
2021/08/14 08:07:29;;;;;;;12.48;8.43;;;37.50;59.00;;;;;;4978483;28;20392;-62
2021/08/14 08:09:55;;;;;;;10.38;7.68;;;37.70;57.90;;;;;;4979430;28;21044;-66
2021/08/14 08:12:20;;;;;;;12.43;8.03;;;37.60;58.70;;;;;;4980322;28;20480;-67
2021/08/14 08:14:46;;;;;;;11.88;8.38;;;37.80;58.80;;;;;;4978159;28;20391;-66
2021/08/14 08:17:12;;;;;;;11.10;8.07;;;38.50;57.40;;;;;;4980294;28;20736;-67
2021/08/14 08:19:37;;;;;;;12.00;7.20;;;37.80;57.20;;;;;;4979565;28;20420;-67
2021/08/14 08:22:03;;;;;;;10.27;8.00;;;38.80;56.40;;;;;;4964483;28;20430;-67
2021/08/14 08:24:29;;;;;;;11.70;8.40;;;39.70;53.40;;;;;;4978150;28;20751;-59
2021/08/14 08:26:54;;;;;;;11.68;7.30;;;39.20;54.00;;;;;;4979476;28;20406;-65
2021/08/14 08:29:20;;;;;;;11.37;7.90;;;38.80;54.50;;;;;;4977523;28;20814;-65
2021/08/14 08:31:46;;;;;;;11.20;8.20;;;38.60;54.20;;;;;;4977855;28;20449;-65
2021/08/14 08:34:11;;;;;;;12.00;8.00;;;39.10;54.10;;;;;;4990014;28;20536;-65
2021/08/14 08:36:37;;;;;;;9.43;7.27;;;38.90;54.30;;;;;;4989001;28;20738;-64
2021/08/14 08:39:03;;;;;;;11.65;8.20;;;38.40;55.30;;;;;;4979726;28;20563;-64
2021/08/14 08:41:28;;;;;;;11.30;7.80;;;38.30;55.50;;;;;;4974919;28;20466;-61
2021/08/14 08:43:54;;;;;;;12.20;7.70;;;38.90;54.30;;;;;;4976546;28;20526;-65
2021/08/14 08:46:19;;;;;;;12.67;8.57;;;39.10;55.00;;;;;;4977226;28;20486;-65
2021/08/14 08:48:50;;;;;;;10.50;9.30;;;38.80;54.90;;;;;;4976002;28;20420;-65
2021/08/14 08:51:23;;;;;;;13.15;10.45;;;40.10;52.10;;;;;;4977676;28;20419;-64
2021/08/14 08:53:48;;;;;;;13.98;12.10;;;39.80;51.90;;;;;;4976457;28;20421;-66
2021/08/14 08:56:14;;;;;;;13.87;12.57;;;39.90;52.30;;;;;;4979245;28;20392;-65
2021/08/14 08:58:40;;;;;;;12.40;9.07;;;40.40;52.30;;;;;;4976997;28;20406;-65
2021/08/14 09:01:06;;;;;;;9.63;6.90;;;40.80;51.20;;;;;;4978805;28;21012;-65
2021/08/14 09:03:32;;;;;;;9.80;7.47;;;41.30;49.80;;;;;;4975939;28;20429;-60
2021/08/14 09:05:57;;;;;;;12.40;7.93;;;41.00;49.40;;;;;;4976152;28;20407;-64
2021/08/14 09:08:23;;;;;;;10.70;8.00;;;40.40;50.20;;;;;;4973596;28;20396;-65
2021/08/14 09:10:50;;;;;;;10.60;7.80;;;39.90;51.50;;;;;;4972343;28;20913;-65
2021/08/14 09:13:18;;;;;;;10.25;7.25;;;39.50;52.20;;;;;;4975625;28;20458;-65
2021/08/14 09:15:45;;;;;;;12.70;8.00;;;39.10;52.30;;;;;;4974422;28;20396;-65
2021/08/14 09:18:12;;;;;;;10.10;7.68;;;39.80;51.70;;;;;;4973112;28;20408;-65
2021/08/14 09:20:52;;;;;;;12.25;7.40;;;40.00;50.40;;;;;;4977310;28;20418;-65
2021/08/14 09:23:19;;;;;;;9.93;7.22;;;40.60;50.20;;;;;;4972379;28;20396;-63
2021/08/14 09:25:55;;;;;;;11.10;7.38;;;41.10;49.30;;;;;;4979956;28;20990;-65
2021/08/14 09:28:31;;;;;;;12.43;7.90;;;41.00;47.50;;;;;;4980042;28;20432;-64
2021/08/14 09:30:59;;;;;;;11.60;7.65;;;40.10;49.00;;;;;;4975459;28;20498;-64
2021/08/14 09:33:30;;;;;;;10.82;9.27;;;39.60;48.90;;;;;;4982934;28;20880;-64
2021/08/14 09:36:00;;;;;;;10.05;7.13;;;39.50;49.30;;;;;;4976000;28;20392;-64
2021/08/14 09:38:46;;;;;;;9.70;6.60;;;41.00;47.90;;;;;;4983493;28;20416;-65
2021/08/14 09:41:22;;;;;;;11.43;7.13;;;42.30;45.90;;;;;;4979207;28;20452;-65
2021/08/14 09:43:52;;;;;;;10.43;7.95;;;42.50;45.40;;;;;;4981319;28;20402;-63
2021/08/14 09:46:18;;;;;;;11.90;7.38;;;42.30;45.10;;;;;;4980265;28;20760;-64
2021/08/14 09:48:55;;;;;;;12.07;8.23;;;42.80;45.10;;;;;;4983231;28;20487;-64
2021/08/14 09:51:27;;;;;;;13.07;10.73;;;41.30;45.90;;;;;;4983048;28;20411;-64
2021/08/14 09:53:56;;;;;;;15.27;13.77;;;40.00;47.80;;;;;;4983610;28;20392;-64
2021/08/14 09:56:27;;;;;;;13.38;8.20;;;40.40;47.60;;;;;;4978083;28;20771;-64
2021/08/14 09:58:53;;;;;;;11.88;7.78;;;40.00;47.40;;;;;;4978893;28;20696;-64
2021/08/14 10:01:19;;;;;;;12.50;7.55;;;38.60;49.40;;;;;;4989135;28;20386;-63
2021/08/14 10:03:46;;;;;;;10.93;9.30;;;39.70;48.50;;;;;;4991950;28;20386;-64
2021/08/14 10:06:13;;;;;;;14.30;8.30;;;40.20;47.70;;;;;;4971794;28;20400;-65
2021/08/14 10:08:40;;;;;;;11.57;8.60;;;40.90;47.20;;;;;;4979034;28;20395;-65
2021/08/14 10:11:13;;;;;;;13.03;9.60;;;41.10;46.40;;;;;;4981051;28;20396;-64
2021/08/14 10:13:40;;;;;;;11.98;8.20;;;40.80;46.20;;;;;;4985609;28;20391;-63
2021/08/14 10:16:06;;;;;;;11.13;8.30;;;40.70;47.20;;;;;;4984004;28;20414;-64
2021/08/14 10:18:32;;;;;;;13.40;8.07;;;41.30;46.40;;;;;;4983861;28;20908;-64
2021/08/14 10:20:57;;;;;;;14.17;7.90;;;41.50;46.10;;;;;;4977692;28;21097;-64
2021/08/14 10:23:24;;;;;;;11.55;7.40;;;41.30;46.90;;;;;;4972388;28;20387;-64
2021/08/14 10:26:15;;;;;;;10.77;8.03;;;41.60;46.10;;;;;;4974827;28;20427;-64
2021/08/14 10:28:52;;;;;;;11.02;7.15;;;42.00;44.80;;;;;;4980842;28;20394;-65
2021/08/14 10:31:30;;;;;;;13.52;8.00;;;41.90;45.70;;;;;;4978974;28;20449;-65
2021/08/14 10:34:16;;;;;;;14.67;13.27;;;41.40;45.90;;;;;;4969345;28;20883;-63
2021/08/14 10:36:43;;;;;;;12.60;11.05;;;40.60;46.80;;;;;;4975419;28;20438;-64
2021/08/14 10:39:17;;;;;;;12.35;10.95;;;39.50;47.70;;;;;;4987148;28;20711;-65
2021/08/14 10:41:43;;;;;;;11.67;10.33;;;39.40;48.20;;;;;;4984007;28;20773;-64
2021/08/14 10:44:10;;;;;;;13.02;11.63;;;38.60;49.00;;;;;;4979675;28;20499;-63
2021/08/14 10:46:49;;;;;;;17.55;8.38;;;38.20;50.20;;;;;;4983970;28;20414;-59
2021/08/14 10:49:37;;;;;;;14.25;12.68;;;37.20;51.00;;;;;;4978916;28;21117;-65
2021/08/14 10:52:03;;;;;;;11.80;7.80;;;36.70;52.20;;;;;;4981276;28;20461;-64
2021/08/14 10:54:28;;;;;;;13.30;8.60;;;36.40;53.00;;;;;;4985558;28;20507;-64
2021/08/14 10:57:00;;;;;;;12.73;9.02;;;36.50;53.00;;;;;;4984103;28;20549;-64
2021/08/14 10:59:35;;;;;;;14.85;7.93;;;36.30;53.30;;;;;;4985232;28;20803;-64
2021/08/14 11:02:06;;;;;;;11.87;8.33;;;37.20;55.90;;;;;;4982182;28;20869;-65
2021/08/14 11:04:37;;;;;;;11.40;7.00;;;35.90;54.70;;;;;;4979645;28;20973;-65
2021/08/14 11:07:18;;;;;;;12.20;7.72;;;35.60;53.90;;;;;;4980712;28;20912;-64
2021/08/14 11:09:52;;;;;;;13.00;7.40;;;35.30;54.50;;;;;;4987091;28;20440;-63
2021/08/14 11:12:37;;;;;;;15.57;14.13;;;35.20;55.60;;;;;;4980253;28;20400;-65
2021/08/14 11:15:24;;;;;;;12.38;7.53;;;35.50;55.00;;;;;;4975836;28;20397;-64
2021/08/14 11:17:50;;;;;;;10.70;7.20;;;35.50;54.30;;;;;;4982085;28;20418;-65
2021/08/14 11:20:19;;;;;;;11.32;7.68;;;35.20;54.90;;;;;;4973889;28;20506;-65
2021/08/14 11:22:45;;;;;;;16.77;7.80;;;35.30;55.10;;;;;;4970974;28;20411;-65
2021/08/14 11:25:32;;;;;;;14.07;7.73;;;35.40;55.10;;;;;;4976659;28;20474;-63
2021/08/14 11:28:08;;;;;;;11.07;7.50;;;35.60;54.90;;;;;;4984231;28;20404;-65
2021/08/14 11:30:43;;;;;;;11.40;7.13;;;35.50;54.80;;;;;;4991363;28;20397;-65
2021/08/14 11:33:10;;;;;;;12.30;7.10;;;35.60;55.50;;;;;;4990659;28;20486;-65
2021/08/14 11:35:38;;;;;;;14.27;8.18;;;35.50;54.40;;;;;;4990722;28;20401;-65
2021/08/14 11:38:09;;;;;;;13.02;7.60;;;35.70;55.20;;;;;;4971637;28;20380;-64
2021/08/14 11:40:42;;;;;;;12.40;7.00;;;35.90;54.70;;;;;;4978349;28;20896;-64
2021/08/14 11:43:11;;;;;;;12.27;7.68;;;35.90;54.60;;;;;;4979222;28;20384;-65
2021/08/14 11:45:38;;;;;;;10.93;7.18;;;35.50;55.00;;;;;;4981199;28;20907;-65
2021/08/14 11:48:07;;;;;;;12.40;7.13;;;35.20;55.40;;;;;;4979483;28;20390;-65
2021/08/14 11:50:33;;;;;;;11.07;7.80;;;35.00;56.40;;;;;;4975460;28;20456;-63
2021/08/14 11:52:59;;;;;;;11.30;7.10;;;35.20;56.00;;;;;;4980468;28;20418;-64
2021/08/14 11:55:24;;;;;;;14.20;7.43;;;35.50;55.60;;;;;;4980284;28;20528;-65
2021/08/14 11:57:52;;;;;;;11.20;6.97;;;35.50;55.10;;;;;;4978839;28;20465;-65
2021/08/14 12:00:17;;;;;;;12.50;8.17;;;35.20;55.40;;;;;;4975001;28;20515;-64
2021/08/14 12:02:47;;;;;;;10.60;7.33;;;34.80;55.60;;;;;;4977352;28;20948;-62
2021/08/14 12:05:21;;;;;;;12.85;8.23;;;34.20;56.80;;;;;;4972675;28;20421;-65
2021/08/14 12:07:47;;;;;;;11.83;7.53;;;34.10;56.70;;;;;;4969892;28;20396;-64
2021/08/14 12:10:13;;;;;;;12.30;7.90;;;34.40;57.70;;;;;;4978083;28;20837;-65
2021/08/14 12:12:39;;;;;;;11.48;7.60;;;34.70;56.90;;;;;;4953142;28;20820;-61
2021/08/14 12:15:11;;;;;;;12.87;7.70;;;34.70;56.70;;;;;;4987388;28;20391;-65
2021/08/14 12:17:46;;;;;;;12.43;7.60;;;34.70;57.20;;;;;;4984096;28;20424;-64
2021/08/14 12:20:12;;;;;;;12.25;7.15;;;34.20;57.20;;;;;;4970684;28;20509;-65
2021/08/14 12:22:38;;;;;;;11.40;7.43;;;34.20;57.50;;;;;;4970528;28;20428;-64
2021/08/14 12:25:23;;;;;;;12.35;7.40;;;34.30;57.60;;;;;;4969911;28;20396;-64
2021/08/14 12:27:49;;;;;;;13.50;7.78;;;34.10;57.50;;;;;;4975847;28;20483;-64
2021/08/14 12:30:24;;;;;;;12.63;7.43;;;34.00;58.10;;;;;;4979901;28;20533;-65
2021/08/14 12:32:53;;;;;;;11.27;7.20;;;34.40;57.60;;;;;;4969166;28;20828;-65